sensor_id;sensor_type;location;lat;lon;timestamp;pressure;altitude;pressure_sealevel;temperature;humidity
13312;BME280;34033;48.672;9.376;2022-10-16T00:01:18;98385.94;;;17.97;84.08
13312;BME280;34033;48.672;9.376;2022-10-16T00:03:44;98387.25;;;17.92;84.42
13312;BME280;34033;48.672;9.376;2022-10-16T00:06:11;98403.44;;;17.91;84.50
13312;BME280;34033;48.672;9.376;2022-10-16T00:08:37;98394.16;;;17.91;84.55
13312;BME280;34033;48.672;9.376;2022-10-16T00:11:08;98386.13;;;17.89;84.51
13312;BME280;34033;48.672;9.376;2022-10-16T00:13:36;98394.16;;;17.91;84.46
13312;BME280;34033;48.672;9.376;2022-10-16T00:16:03;98383.13;;;17.97;84.17
13312;BME280;34033;48.672;9.376;2022-10-16T00:18:29;98383.97;;;17.93;84.21
13312;BME280;34033;48.672;9.376;2022-10-16T00:20:54;98393.69;;;17.92;84.36
13312;BME280;34033;48.672;9.376;2022-10-16T00:23:20;98390.06;;;17.92;84.41
13312;BME280;34033;48.672;9.376;2022-10-16T00:26:07;98396.72;;;17.85;84.57
13312;BME280;34033;48.672;9.376;2022-10-16T00:28:33;98405.28;;;17.82;84.87
13312;BME280;34033;48.672;9.376;2022-10-16T00:31:03;98401.22;;;17.83;84.72
13312;BME280;34033;48.672;9.376;2022-10-16T00:33:28;98410.06;;;17.85;84.24
13312;BME280;34033;48.672;9.376;2022-10-16T00:35:53;98413.75;;;17.82;84.85
13312;BME280;34033;48.672;9.376;2022-10-16T00:38:19;98405.09;;;17.73;85.40
13312;BME280;34033;48.672;9.376;2022-10-16T00:40:44;98408.44;;;17.68;85.71
13312;BME280;34033;48.672;9.376;2022-10-16T00:43:45;98411.19;;;17.71;84.78
13312;BME280;34033;48.672;9.376;2022-10-16T00:48:36;98403.88;;;17.74;84.93
13312;BME280;34033;48.672;9.376;2022-10-16T00:51:01;98403.50;;;17.72;84.93
13312;BME280;34033;48.672;9.376;2022-10-16T00:53:27;98403.50;;;17.72;84.38
13312;BME280;34033;48.672;9.376;2022-10-16T00:55:53;98405.25;;;17.66;85.13
13312;BME280;34033;48.672;9.376;2022-10-16T00:58:19;98403.75;;;17.61;85.15
13312;BME280;34033;48.672;9.376;2022-10-16T01:00:45;98405.41;;;17.59;85.40
13312;BME280;34033;48.672;9.376;2022-10-16T01:03:31;98394.84;;;17.63;85.25
13312;BME280;34033;48.672;9.376;2022-10-16T01:08:35;98408.06;;;17.66;84.19
13312;BME280;34033;48.672;9.376;2022-10-16T01:11:16;98406.84;;;17.67;83.98
13312;BME280;34033;48.672;9.376;2022-10-16T01:13:46;98405.78;;;17.61;84.31
13312;BME280;34033;48.672;9.376;2022-10-16T01:16:38;98419.25;;;17.53;84.49
13312;BME280;34033;48.672;9.376;2022-10-16T01:19:09;98417.28;;;17.50;84.85
13312;BME280;34033;48.672;9.376;2022-10-16T01:21:40;98423.75;;;17.50;85.23
13312;BME280;34033;48.672;9.376;2022-10-16T01:24:33;98425.41;;;17.48;85.22
13312;BME280;34033;48.672;9.376;2022-10-16T01:29:41;98426.00;;;17.39;85.63
13312;BME280;34033;48.672;9.376;2022-10-16T01:32:16;98427.22;;;17.38;85.47
13312;BME280;34033;48.672;9.376;2022-10-16T01:34:51;98428.44;;;17.37;85.71
13312;BME280;34033;48.672;9.376;2022-10-16T01:37:29;98421.22;;;17.36;85.95
13312;BME280;34033;48.672;9.376;2022-10-16T01:39:59;98425.34;;;17.32;85.85
13312;BME280;34033;48.672;9.376;2022-10-16T01:42:30;98406.81;;;17.31;85.76
13312;BME280;34033;48.672;9.376;2022-10-16T01:44:58;98411.69;;;17.30;85.78
13312;BME280;34033;48.672;9.376;2022-10-16T01:47:26;98418.13;;;17.31;86.13
13312;BME280;34033;48.672;9.376;2022-10-16T01:49:53;98413.31;;;17.28;85.90
13312;BME280;34033;48.672;9.376;2022-10-16T01:52:23;98407.31;;;17.26;86.04
13312;BME280;34033;48.672;9.376;2022-10-16T01:54:52;98405.28;;;17.26;85.93
13312;BME280;34033;48.672;9.376;2022-10-16T01:57:21;98413.25;;;17.31;85.40
13312;BME280;34033;48.672;9.376;2022-10-16T01:59:52;98414.50;;;17.30;84.75
13312;BME280;34033;48.672;9.376;2022-10-16T02:02:20;98410.88;;;17.30;84.96
13312;BME280;34033;48.672;9.376;2022-10-16T02:04:51;98406.44;;;17.29;84.52
13312;BME280;34033;48.672;9.376;2022-10-16T02:07:19;98414.56;;;17.27;84.98
13312;BME280;34033;48.672;9.376;2022-10-16T02:09:45;98401.31;;;17.24;84.92
13312;BME280;34033;48.672;9.376;2022-10-16T02:12:25;98396.53;;;17.21;85.50
13312;BME280;34033;48.672;9.376;2022-10-16T02:14:51;98405.00;;;17.21;85.71
13312;BME280;34033;48.672;9.376;2022-10-16T02:17:18;98396.09;;;17.22;85.78
13312;BME280;34033;48.672;9.376;2022-10-16T02:19:45;98400.16;;;17.21;85.49
13312;BME280;34033;48.672;9.376;2022-10-16T02:22:19;98400.16;;;17.21;85.66
13312;BME280;34033;48.672;9.376;2022-10-16T02:24:55;98405.28;;;17.26;85.27
13312;BME280;34033;48.672;9.376;2022-10-16T02:27:30;98418.19;;;17.27;85.10
13312;BME280;34033;48.672;9.376;2022-10-16T02:30:09;98414.72;;;17.20;85.31
13312;BME280;34033;48.672;9.376;2022-10-16T02:32:40;98416.00;;;17.15;85.69
13312;BME280;34033;48.672;9.376;2022-10-16T02:35:07;98418.53;;;17.09;85.90
13312;BME280;34033;48.672;9.376;2022-10-16T02:37:33;98426.69;;;17.07;86.45
13312;BME280;34033;48.672;9.376;2022-10-16T02:40:00;98412.91;;;17.09;86.47
13312;BME280;34033;48.672;9.376;2022-10-16T02:42:33;98418.50;;;17.13;86.27
13312;BME280;34033;48.672;9.376;2022-10-16T02:44:59;98401.53;;;17.13;86.35
13312;BME280;34033;48.672;9.376;2022-10-16T02:47:24;98393.91;;;17.10;86.52
13312;BME280;34033;48.672;9.376;2022-10-16T02:49:50;98395.91;;;17.13;86.72
13312;BME280;34033;48.672;9.376;2022-10-16T02:52:15;98401.88;;;17.15;86.54
13312;BME280;34033;48.672;9.376;2022-10-16T02:54:41;98396.22;;;17.15;86.50
13312;BME280;34033;48.672;9.376;2022-10-16T02:57:06;98402.34;;;17.14;86.53
13312;BME280;34033;48.672;9.376;2022-10-16T02:59:31;98405.44;;;17.19;85.53
13312;BME280;34033;48.672;9.376;2022-10-16T03:01:57;98405.28;;;17.26;85.13
13312;BME280;34033;48.672;9.376;2022-10-16T03:04:22;98416.06;;;17.31;84.99
13312;BME280;34033;48.672;9.376;2022-10-16T03:06:47;98425.81;;;17.30;85.15
13312;BME280;34033;48.672;9.376;2022-10-16T03:09:12;98415.72;;;17.29;84.59
13312;BME280;34033;48.672;9.376;2022-10-16T03:11:38;98419.88;;;17.25;85.11
13312;BME280;34033;48.672;9.376;2022-10-16T03:14:03;98414.63;;;17.23;85.23
13312;BME280;34033;48.672;9.376;2022-10-16T03:16:28;98417.91;;;17.22;85.45
13312;BME280;34033;48.672;9.376;2022-10-16T03:18:54;98419.91;;;17.21;85.82
13312;BME280;34033;48.672;9.376;2022-10-16T03:21:19;98420.38;;;17.20;85.74
13312;BME280;34033;48.672;9.376;2022-10-16T03:23:44;98407.53;;;17.15;86.18
13312;BME280;34033;48.672;9.376;2022-10-16T03:26:10;98408.03;;;17.10;86.49
13312;BME280;34033;48.672;9.376;2022-10-16T03:28:35;98413.19;;;17.15;86.27
13312;BME280;34033;48.672;9.376;2022-10-16T03:31:00;98401.97;;;17.12;86.48
13312;BME280;34033;48.672;9.376;2022-10-16T03:33:26;98403.56;;;17.13;86.32
13312;BME280;34033;48.672;9.376;2022-10-16T03:35:52;98412.47;;;17.11;86.46
13312;BME280;34033;48.672;9.376;2022-10-16T03:38:18;98405.97;;;17.14;86.33
13312;BME280;34033;48.672;9.376;2022-10-16T03:40:44;98408.03;;;17.10;85.92
13312;BME280;34033;48.672;9.376;2022-10-16T03:43:09;98409.72;;;17.07;86.36
13312;BME280;34033;48.672;9.376;2022-10-16T03:45:35;98425.75;;;17.14;85.64
13312;BME280;34033;48.672;9.376;2022-10-16T03:48:00;98425.00;;;17.10;85.64
13312;BME280;34033;48.672;9.376;2022-10-16T03:50:25;98425.00;;;17.10;85.87
13312;BME280;34033;48.672;9.376;2022-10-16T03:52:51;98422.16;;;17.10;85.84
13312;BME280;34033;48.672;9.376;2022-10-16T03:55:16;98422.63;;;17.08;86.11
13312;BME280;34033;48.672;9.376;2022-10-16T03:57:42;98427.97;;;17.03;86.02
13312;BME280;34033;48.672;9.376;2022-10-16T04:00:07;98428.31;;;17.05;86.27
13312;BME280;34033;48.672;9.376;2022-10-16T04:02:33;98428.31;;;17.05;86.13
13312;BME280;34033;48.672;9.376;2022-10-16T04:04:58;98434.34;;;17.07;85.93
13312;BME280;34033;48.672;9.376;2022-10-16T04:07:24;98433.91;;;17.08;85.54
13312;BME280;34033;48.672;9.376;2022-10-16T04:09:49;98426.16;;;17.13;85.83
13312;BME280;34033;48.672;9.376;2022-10-16T04:12:17;98432.97;;;17.15;85.15
13312;BME280;34033;48.672;9.376;2022-10-16T04:14:42;98430.59;;;17.14;85.57
13312;BME280;34033;48.672;9.376;2022-10-16T04:17:07;98427.38;;;17.12;85.63
13312;BME280;34033;48.672;9.376;2022-10-16T04:19:33;98439.91;;;17.10;85.40
13312;BME280;34033;48.672;9.376;2022-10-16T04:21:58;98431.53;;;17.07;85.81
13312;BME280;34033;48.672;9.376;2022-10-16T04:24:23;98438.09;;;17.00;85.69
13312;BME280;34033;48.672;9.376;2022-10-16T04:26:48;98443.84;;;16.97;86.39
13312;BME280;34033;48.672;9.376;2022-10-16T04:29:14;98442.66;;;16.94;86.16
13312;BME280;34033;48.672;9.376;2022-10-16T04:31:39;98442.66;;;16.94;86.38
13312;BME280;34033;48.672;9.376;2022-10-16T04:34:05;98445.44;;;16.98;86.38
13312;BME280;34033;48.672;9.376;2022-10-16T04:36:30;98446.28;;;16.95;86.47
13312;BME280;34033;48.672;9.376;2022-10-16T04:38:56;98441.50;;;16.92;86.47
13312;BME280;34033;48.672;9.376;2022-10-16T04:41:21;98441.50;;;16.92;86.78
13312;BME280;34033;48.672;9.376;2022-10-16T04:43:46;98445.56;;;16.91;86.64
13312;BME280;34033;48.672;9.376;2022-10-16T04:46:12;98438.69;;;16.92;86.91
13312;BME280;34033;48.672;9.376;2022-10-16T04:48:37;98440.72;;;16.91;86.56
13312;BME280;34033;48.672;9.376;2022-10-16T04:51:03;98450.84;;;16.89;87.04
13312;BME280;34033;48.672;9.376;2022-10-16T04:53:28;98441.22;;;16.86;87.09
13312;BME280;34033;48.672;9.376;2022-10-16T04:55:53;98440.41;;;16.86;87.38
13312;BME280;34033;48.672;9.376;2022-10-16T04:58:19;98453.31;;;16.87;87.25
13312;BME280;34033;48.672;9.376;2022-10-16T05:00:44;98454.88;;;16.88;87.24
13312;BME280;34033;48.672;9.376;2022-10-16T05:03:11;98459.31;;;16.89;86.78
13312;BME280;34033;48.672;9.376;2022-10-16T05:05:42;98452.94;;;16.85;87.25
13312;BME280;34033;48.672;9.376;2022-10-16T05:08:08;98457.84;;;16.81;87.30
13312;BME280;34033;48.672;9.376;2022-10-16T05:10:33;98455.47;;;16.79;87.37
13312;BME280;34033;48.672;9.376;2022-10-16T05:12:59;98461.03;;;16.83;87.81
13312;BME280;34033;48.672;9.376;2022-10-16T05:15:24;98461.03;;;16.83;87.62
13312;BME280;34033;48.672;9.376;2022-10-16T05:17:52;98465.88;;;16.82;87.61
13312;BME280;34033;48.672;9.376;2022-10-16T05:20:18;98473.13;;;16.83;87.38
13312;BME280;34033;48.672;9.376;2022-10-16T05:22:43;98470.72;;;16.82;86.82
13312;BME280;34033;48.672;9.376;2022-10-16T05:25:08;98486.09;;;16.81;87.41
13312;BME280;34033;48.672;9.376;2022-10-16T05:27:34;98477.63;;;16.81;87.31
13312;BME280;34033;48.672;9.376;2022-10-16T05:29:59;98468.28;;;16.84;87.61
13312;BME280;34033;48.672;9.376;2022-10-16T05:32:24;98472.19;;;16.90;87.49
13312;BME280;34033;48.672;9.376;2022-10-16T05:34:50;98466.94;;;16.92;86.43
13312;BME280;34033;48.672;9.376;2022-10-16T05:37:16;98471.28;;;16.96;86.21
13312;BME280;34033;48.672;9.376;2022-10-16T05:39:41;98471.63;;;16.98;85.58
13312;BME280;34033;48.672;9.376;2022-10-16T05:42:06;98468.38;;;17.00;85.62
13312;BME280;34033;48.672;9.376;2022-10-16T05:44:32;98470.84;;;16.98;85.77
13312;BME280;34033;48.672;9.376;2022-10-16T05:46:57;98478.44;;;17.01;85.22
13312;BME280;34033;48.672;9.376;2022-10-16T05:49:23;98483.22;;;17.04;84.88
13312;BME280;34033;48.672;9.376;2022-10-16T05:51:48;98486.50;;;17.02;84.85
13312;BME280;34033;48.672;9.376;2022-10-16T05:54:14;98484.97;;;16.98;85.20
13312;BME280;34033;48.672;9.376;2022-10-16T05:56:39;98484.97;;;16.98;84.97
13312;BME280;34033;48.672;9.376;2022-10-16T05:59:05;98481.69;;;16.99;84.99
13312;BME280;34033;48.672;9.376;2022-10-16T06:01:30;98488.22;;;16.96;84.69
13312;BME280;34033;48.672;9.376;2022-10-16T06:03:56;98501.16;;;16.94;84.96
13312;BME280;34033;48.672;9.376;2022-10-16T06:06:24;98499.50;;;16.96;85.09
13312;BME280;34033;48.672;9.376;2022-10-16T06:08:51;98491.09;;;16.93;84.95
13312;BME280;34033;48.672;9.376;2022-10-16T06:11:28;98493.56;;;16.91;85.47
13312;BME280;34033;48.672;9.376;2022-10-16T06:13:56;98489.06;;;16.93;85.70
13312;BME280;34033;48.672;9.376;2022-10-16T06:16:22;98502.38;;;16.93;85.83
13312;BME280;34033;48.672;9.376;2022-10-16T06:18:50;98503.97;;;16.94;85.51
13312;BME280;34033;48.672;9.376;2022-10-16T06:21:20;98506.81;;;16.94;85.74
13312;BME280;34033;48.672;9.376;2022-10-16T06:23:47;98508.09;;;16.89;85.76
13312;BME280;34033;48.672;9.376;2022-10-16T06:26:15;98516.66;;;16.86;85.81
13312;BME280;34033;48.672;9.376;2022-10-16T06:28:41;98518.59;;;16.89;86.43
13312;BME280;34033;48.672;9.376;2022-10-16T06:31:09;98523.41;;;16.92;86.14
13312;BME280;34033;48.672;9.376;2022-10-16T06:33:35;98523.41;;;16.92;86.32
13312;BME280;34033;48.672;9.376;2022-10-16T06:36:09;98524.53;;;16.94;86.61
13312;BME280;34033;48.672;9.376;2022-10-16T06:38:35;98527.31;;;16.98;86.33
13312;BME280;34033;48.672;9.376;2022-10-16T06:41:01;98529.69;;;16.99;86.46
13312;BME280;34033;48.672;9.376;2022-10-16T06:43:28;98538.94;;;17.03;86.16
13312;BME280;34033;48.672;9.376;2022-10-16T06:45:57;98532.31;;;17.10;86.05
13312;BME280;34033;48.672;9.376;2022-10-16T06:48:24;98533.78;;;17.18;85.64
13312;BME280;34033;48.672;9.376;2022-10-16T06:53:29;98545.56;;;17.36;84.97
13312;BME280;34033;48.672;9.376;2022-10-16T06:55:55;98543.88;;;17.39;84.71
13312;BME280;34033;48.672;9.376;2022-10-16T06:58:21;98544.31;;;17.37;84.89
13312;BME280;34033;48.672;9.376;2022-10-16T07:00:46;98558.00;;;17.39;85.00
13312;BME280;34033;48.672;9.376;2022-10-16T07:03:12;98547.88;;;17.41;85.49
13312;BME280;34033;48.672;9.376;2022-10-16T07:05:39;98545.41;;;17.43;85.10
13312;BME280;34033;48.672;9.376;2022-10-16T07:08:05;98560.72;;;17.46;84.77
13312;BME280;34033;48.672;9.376;2022-10-16T07:10:31;98565.44;;;17.52;84.22
13312;BME280;34033;48.672;9.376;2022-10-16T07:12:56;98564.97;;;17.54;84.18
13312;BME280;34033;48.672;9.376;2022-10-16T07:15:22;98569.41;;;17.55;84.26
13312;BME280;34033;48.672;9.376;2022-10-16T07:17:47;98570.94;;;17.60;83.73
13312;BME280;34033;48.672;9.376;2022-10-16T07:20:13;98577.34;;;17.64;83.96
13312;BME280;34033;48.672;9.376;2022-10-16T07:22:38;98580.47;;;17.69;83.30
13312;BME280;34033;48.672;9.376;2022-10-16T07:25:04;98583.63;;;17.71;83.29
13312;BME280;34033;48.672;9.376;2022-10-16T07:27:29;98592.50;;;17.73;82.90
13312;BME280;34033;48.672;9.376;2022-10-16T07:29:54;98584.72;;;17.77;82.69
13312;BME280;34033;48.672;9.376;2022-10-16T07:32:20;98585.16;;;17.76;83.32
13312;BME280;34033;48.672;9.376;2022-10-16T07:34:45;98598.06;;;17.77;83.64
13312;BME280;34033;48.672;9.376;2022-10-16T07:37:11;98606.03;;;17.82;83.17
13312;BME280;34033;48.672;9.376;2022-10-16T07:39:36;98606.03;;;17.82;83.19
13312;BME280;34033;48.672;9.376;2022-10-16T07:42:01;98610.91;;;17.81;83.74
13312;BME280;34033;48.672;9.376;2022-10-16T07:44:27;98616.63;;;17.78;83.80
13312;BME280;34033;48.672;9.376;2022-10-16T07:46:52;98618.75;;;17.74;84.48
13312;BME280;34033;48.672;9.376;2022-10-16T07:49:18;98619.09;;;17.76;84.30
13312;BME280;34033;48.672;9.376;2022-10-16T07:51:43;98619.09;;;17.76;84.77
13312;BME280;34033;48.672;9.376;2022-10-16T07:54:11;98621.41;;;17.81;84.98
13312;BME280;34033;48.672;9.376;2022-10-16T07:56:37;98632.25;;;17.86;84.31
13312;BME280;34033;48.672;9.376;2022-10-16T07:59:02;98632.59;;;17.88;84.47
13312;BME280;34033;48.672;9.376;2022-10-16T08:01:27;98634.09;;;17.92;84.41
13312;BME280;34033;48.672;9.376;2022-10-16T08:03:53;98632.88;;;17.93;84.42
13312;BME280;34033;48.672;9.376;2022-10-16T08:06:19;98629.09;;;18.00;84.53
13312;BME280;34033;48.672;9.376;2022-10-16T08:08:45;98632.22;;;18.06;84.18
13312;BME280;34033;48.672;9.376;2022-10-16T08:11:10;98632.50;;;18.11;83.78
13312;BME280;34033;48.672;9.376;2022-10-16T08:13:36;98633.22;;;18.15;84.24
13312;BME280;34033;48.672;9.376;2022-10-16T08:16:02;98635.19;;;18.18;84.15
13312;BME280;34033;48.672;9.376;2022-10-16T08:18:33;98631.84;;;18.23;83.80
13312;BME280;34033;48.672;9.376;2022-10-16T08:20:59;98643.97;;;18.24;83.77
13312;BME280;34033;48.672;9.376;2022-10-16T08:23:26;98647.50;;;18.28;83.35
13312;BME280;34033;48.672;9.376;2022-10-16T08:25:55;98637.69;;;18.32;83.08
13312;BME280;34033;48.672;9.376;2022-10-16T08:28:21;98648.44;;;18.41;82.32
13312;BME280;34033;48.672;9.376;2022-10-16T08:30:47;98643.06;;;18.47;82.41
13312;BME280;34033;48.672;9.376;2022-10-16T08:33:13;98644.91;;;18.53;82.63
13312;BME280;34033;48.672;9.376;2022-10-16T08:35:38;98648.44;;;18.61;82.35
13312;BME280;34033;48.672;9.376;2022-10-16T08:38:04;98652.66;;;18.69;81.71
13312;BME280;34033;48.672;9.376;2022-10-16T08:40:33;98661.72;;;18.80;80.96
13312;BME280;34033;48.672;9.376;2022-10-16T08:48:47;98648.56;;;19.06;79.75
13312;BME280;34033;48.672;9.376;2022-10-16T08:51:20;98658.03;;;19.15;79.28
13312;BME280;34033;48.672;9.376;2022-10-16T08:53:57;98651.72;;;19.24;79.00
13312;BME280;34033;48.672;9.376;2022-10-16T08:56:24;98654.06;;;19.29;78.21
13312;BME280;34033;48.672;9.376;2022-10-16T08:58:49;98655.88;;;19.36;77.31
13312;BME280;34033;48.672;9.376;2022-10-16T09:01:17;98662.97;;;19.44;76.61
13312;BME280;34033;48.672;9.376;2022-10-16T09:14:50;98676.47;;;19.56;75.96
13312;BME280;34033;48.672;9.376;2022-10-16T09:19:53;98680.94;;;19.70;74.67
13312;BME280;34033;48.672;9.376;2022-10-16T09:22:26;98686.00;;;19.78;74.78
13312;BME280;34033;48.672;9.376;2022-10-16T09:24:54;98684.91;;;19.88;74.81
13312;BME280;34033;48.672;9.376;2022-10-16T09:27:20;98681.78;;;19.99;72.03
13312;BME280;34033;48.672;9.376;2022-10-16T09:29:45;98692.38;;;20.11;72.46
13312;BME280;34033;48.672;9.376;2022-10-16T09:32:16;98686.03;;;20.20;72.21
13312;BME280;34033;48.672;9.376;2022-10-16T09:34:54;98693.31;;;20.21;73.07
13312;BME280;34033;48.672;9.376;2022-10-16T09:37:22;98689.56;;;20.24;72.55
13312;BME280;34033;48.672;9.376;2022-10-16T09:39:52;98693.13;;;20.28;72.65
13312;BME280;34033;48.672;9.376;2022-10-16T09:42:22;98693.84;;;20.32;72.00
13312;BME280;34033;48.672;9.376;2022-10-16T09:44:52;98686.47;;;20.47;72.00
13312;BME280;34033;48.672;9.376;2022-10-16T09:47:23;98693.00;;;20.60;72.08
13312;BME280;34033;48.672;9.376;2022-10-16T09:50:01;98689.81;;;20.71;71.40
13312;BME280;34033;48.672;9.376;2022-10-16T09:52:30;98688.81;;;20.77;70.75
13312;BME280;34033;48.672;9.376;2022-10-16T09:54:58;98690.06;;;20.76;70.64
13312;BME280;34033;48.672;9.376;2022-10-16T09:57:24;98687.44;;;20.82;69.48
13312;BME280;34033;48.672;9.376;2022-10-16T09:59:52;98691.75;;;20.87;69.49
13312;BME280;34033;48.672;9.376;2022-10-16T10:02:20;98694.97;;;20.89;68.66
13312;BME280;34033;48.672;9.376;2022-10-16T10:04:53;98689.59;;;20.91;69.15
13312;BME280;34033;48.672;9.376;2022-10-16T10:07:27;98694.47;;;20.90;69.25
13312;BME280;34033;48.672;9.376;2022-10-16T10:09:56;98692.13;;;20.89;69.36
13312;BME280;34033;48.672;9.376;2022-10-16T10:12:24;98686.44;;;20.89;70.17
13312;BME280;34033;48.672;9.376;2022-10-16T10:14:52;98691.63;;;20.90;68.77
13312;BME280;34033;48.672;9.376;2022-10-16T10:17:21;98690.31;;;20.95;67.98
13312;BME280;34033;48.672;9.376;2022-10-16T10:22:29;98686.66;;;21.32;69.79
13312;BME280;34033;48.672;9.376;2022-10-16T10:30:21;98683.97;;;22.10;66.73
13312;BME280;34033;48.672;9.376;2022-10-16T10:33:20;98683.22;;;22.19;64.02
13312;BME280;34033;48.672;9.376;2022-10-16T10:44:01;98677.31;;;22.57;68.22
13312;BME280;34033;48.672;9.376;2022-10-16T10:51:59;98685.06;;;22.78;67.71
13312;BME280;34033;48.672;9.376;2022-10-16T10:57:10;98685.16;;;22.96;67.08
13312;BME280;34033;48.672;9.376;2022-10-16T11:02:41;98690.94;;;23.14;65.86
13312;BME280;34033;48.672;9.376;2022-10-16T11:08:14;98692.53;;;23.15;62.77
13312;BME280;34033;48.672;9.376;2022-10-16T11:13:21;98675.59;;;23.21;62.70
13312;BME280;34033;48.672;9.376;2022-10-16T11:15:51;98686.22;;;23.29;63.07
13312;BME280;34033;48.672;9.376;2022-10-16T11:18:33;98673.91;;;23.42;63.38
13312;BME280;34033;48.672;9.376;2022-10-16T11:21:10;98674.59;;;23.55;63.34
13312;BME280;34033;48.672;9.376;2022-10-16T11:24:34;98668.59;;;23.71;63.14
13312;BME280;34033;48.672;9.376;2022-10-16T11:27:05;98667.66;;;23.83;61.60
13312;BME280;34033;48.672;9.376;2022-10-16T11:29:35;98676.41;;;23.98;62.71
13312;BME280;34033;48.672;9.376;2022-10-16T11:32:06;98666.22;;;24.15;62.73
13312;BME280;34033;48.672;9.376;2022-10-16T11:34:44;98662.59;;;24.33;60.58
13312;BME280;34033;48.672;9.376;2022-10-16T11:37:25;98664.63;;;24.50;59.51
13312;BME280;34033;48.672;9.376;2022-10-16T11:39:54;98664.31;;;24.58;59.42
13312;BME280;34033;48.672;9.376;2022-10-16T11:42:32;98658.22;;;24.65;59.04
13312;BME280;34033;48.672;9.376;2022-10-16T11:50:09;98655.94;;;24.87;57.39
13312;BME280;34033;48.672;9.376;2022-10-16T11:53:25;98653.88;;;24.97;57.47
13312;BME280;34033;48.672;9.376;2022-10-16T11:55:27;98660.81;;;25.14;56.97
13312;BME280;34033;48.672;9.376;2022-10-16T11:58:07;98661.97;;;25.31;55.75
13312;BME280;34033;48.672;9.376;2022-10-16T12:03:34;98667.19;;;25.65;53.91
13312;BME280;34033;48.672;9.376;2022-10-16T12:08:45;98647.84;;;25.99;54.25
13312;BME280;34033;48.672;9.376;2022-10-16T12:13:45;98653.28;;;25.97;50.06
13312;BME280;34033;48.672;9.376;2022-10-16T12:18:43;98653.19;;;25.91;47.90
13312;BME280;34033;48.672;9.376;2022-10-16T12:21:10;98648.06;;;25.95;48.96
13312;BME280;34033;48.672;9.376;2022-10-16T12:23:49;98635.44;;;26.02;49.85
13312;BME280;34033;48.672;9.376;2022-10-16T12:26:24;98639.47;;;26.10;48.08
13312;BME280;34033;48.672;9.376;2022-10-16T12:28:50;98642.56;;;26.21;48.67
13312;BME280;34033;48.672;9.376;2022-10-16T12:31:16;98639.63;;;26.30;49.40
13312;BME280;34033;48.672;9.376;2022-10-16T12:34:01;98642.91;;;26.38;48.15
13312;BME280;34033;48.672;9.376;2022-10-16T12:36:32;98642.13;;;26.52;48.94
13312;BME280;34033;48.672;9.376;2022-10-16T12:38:58;98639.53;;;26.69;47.52
13312;BME280;34033;48.672;9.376;2022-10-16T12:41:27;98640.06;;;26.67;45.54
13312;BME280;34033;48.672;9.376;2022-10-16T12:43:53;98648.06;;;26.78;46.98
13312;BME280;34033;48.672;9.376;2022-10-16T12:48:44;98651.00;;;26.69;44.76
13312;BME280;34033;48.672;9.376;2022-10-16T12:54:34;98660.41;;;26.54;45.28
13312;BME280;34033;48.672;9.376;2022-10-16T13:00:10;98662.78;;;26.71;44.72
13312;BME280;34033;48.672;9.376;2022-10-16T13:08:17;98635.78;;;26.92;44.71
13312;BME280;34033;48.672;9.376;2022-10-16T13:19:06;98658.66;;;27.01;44.85
13312;BME280;34033;48.672;9.376;2022-10-16T13:29:32;98658.16;;;27.72;42.83
13312;BME280;34033;48.672;9.376;2022-10-16T13:32:00;98656.81;;;27.88;42.96
13312;BME280;34033;48.672;9.376;2022-10-16T13:34:27;98652.41;;;27.93;42.46
13312;BME280;34033;48.672;9.376;2022-10-16T13:36:53;98657.72;;;28.00;43.14
13312;BME280;34033;48.672;9.376;2022-10-16T13:39:23;98658.53;;;28.00;42.75
13312;BME280;34033;48.672;9.376;2022-10-16T13:42:06;98657.94;;;27.96;41.96
13312;BME280;34033;48.672;9.376;2022-10-16T13:44:46;98651.72;;;27.77;42.20
13312;BME280;34033;48.672;9.376;2022-10-16T13:47:27;98656.44;;;27.60;42.76
13312;BME280;34033;48.672;9.376;2022-10-16T13:50:15;98649.03;;;27.74;43.87
13312;BME280;34033;48.672;9.376;2022-10-16T13:52:41;98654.22;;;27.70;42.47
13312;BME280;34033;48.672;9.376;2022-10-16T13:55:24;98650.75;;;27.66;42.70
13312;BME280;34033;48.672;9.376;2022-10-16T13:57:50;98648.00;;;27.57;43.02
13312;BME280;34033;48.672;9.376;2022-10-16T14:00:22;98652.00;;;27.45;43.35
13312;BME280;34033;48.672;9.376;2022-10-16T14:02:57;98642.72;;;27.35;43.40
13312;BME280;34033;48.672;9.376;2022-10-16T14:05:23;98640.38;;;27.33;44.01
13312;BME280;34033;48.672;9.376;2022-10-16T14:07:50;98646.38;;;27.35;44.13
13312;BME280;34033;48.672;9.376;2022-10-16T14:10:25;98648.75;;;27.37;44.32
13312;BME280;34033;48.672;9.376;2022-10-16T14:13:00;98651.53;;;27.31;44.02
13312;BME280;34033;48.672;9.376;2022-10-16T14:15:26;98660.56;;;27.24;44.54
13312;BME280;34033;48.672;9.376;2022-10-16T14:17:52;98657.03;;;27.15;44.52
13312;BME280;34033;48.672;9.376;2022-10-16T14:20:20;98651.13;;;27.04;44.74
13312;BME280;34033;48.672;9.376;2022-10-16T14:23:02;98661.44;;;26.95;44.85
13312;BME280;34033;48.672;9.376;2022-10-16T14:25:30;98655.47;;;26.84;44.80
13312;BME280;34033;48.672;9.376;2022-10-16T14:30:23;98662.56;;;26.74;44.84
13312;BME280;34033;48.672;9.376;2022-10-16T14:35:32;98659.91;;;26.71;46.10
13312;BME280;34033;48.672;9.376;2022-10-16T14:37:59;98661.19;;;26.70;46.54
13312;BME280;34033;48.672;9.376;2022-10-16T14:40:31;98662.69;;;26.65;46.54
13312;BME280;34033;48.672;9.376;2022-10-16T14:42:57;98663.88;;;26.58;46.49
13312;BME280;34033;48.672;9.376;2022-10-16T14:45:26;98661.59;;;26.48;46.81
13312;BME280;34033;48.672;9.376;2022-10-16T14:47:56;98658.25;;;26.35;47.29
13312;BME280;34033;48.672;9.376;2022-10-16T14:50:22;98663.75;;;26.24;47.28
13312;BME280;34033;48.672;9.376;2022-10-16T14:52:48;98661.91;;;26.11;47.39
13312;BME280;34033;48.672;9.376;2022-10-16T14:55:13;98664.06;;;26.02;47.71
13312;BME280;34033;48.672;9.376;2022-10-16T14:57:40;98657.72;;;25.98;48.51
13312;BME280;34033;48.672;9.376;2022-10-16T15:00:16;98669.97;;;25.98;48.44
13312;BME280;34033;48.672;9.376;2022-10-16T15:02:43;98662.19;;;25.99;48.61